Time;durP1;ratioP1;P1;durP2;ratioP2;P2;SDS_P1;SDS_P2;PMS_P1;PMS_P2;Temp;Humidity;BMP_temperature;BMP_pressure;BME280_temperature;BME280_humidity;BME280_pressure;Samples;Min_cycle;Max_cycle;Signal;HPM_P1;HPM_P2
2023/06/04 00:01:34;;;;;;;;;;;;;;;18.28;33.07;101952.91;7342007;19;19937;-61
2023/06/04 00:03:59;;;;;;;;;;;;;;;18.23;33.14;101953.06;7348707;19;20030;-61
2023/06/04 00:06:24;;;;;;;;;;;;;;;18.18;33.62;101952.38;7347074;19;20448;-60
2023/06/04 00:08:50;;;;;;;;;;;;;;;18.14;33.31;101950.75;7351185;19;19923;-60
2023/06/04 00:11:15;;;;;;;;;;;;;;;18.09;33.23;101953.53;7351274;19;19923;-60
2023/06/04 00:13:40;;;;;;;;;;;;;;;18.05;33.90;101945.78;7342818;19;20225;-60
2023/06/04 00:16:05;;;;;;;;;;;;;;;18.01;33.57;101952.09;7345305;19;20462;-61
2023/06/04 00:18:31;;;;;;;;;;;;;;;17.91;33.97;101942.75;7352753;19;20182;-60
2023/06/04 00:20:56;;;;;;;;;;;;;;;17.90;33.95;101952.47;7353510;19;20992;-60
2023/06/04 00:23:21;;;;;;;;;;;;;;;17.86;33.62;101951.69;7345646;19;19930;-60
2023/06/04 00:25:47;;;;;;;;;;;;;;;17.81;33.87;101953.63;7350319;19;19937;-60
2023/06/04 00:28:12;;;;;;;;;;;;;;;17.77;34.21;101951.97;7353523;19;20400;-60
2023/06/04 00:30:37;;;;;;;;;;;;;;;17.73;34.06;101949.50;7353397;19;19947;-60
2023/06/04 00:33:02;;;;;;;;;;;;;;;17.68;34.27;101946.97;7353700;19;19918;-60
2023/06/04 00:35:28;;;;;;;;;;;;;;;17.61;34.05;101946.31;7348857;19;19923;-61
2023/06/04 00:37:53;;;;;;;;;;;;;;;17.58;34.40;101954.31;7353081;19;20002;-60
2023/06/04 00:40:18;;;;;;;;;;;;;;;17.53;34.46;101952.72;7348979;19;20649;-59
2023/06/04 00:42:44;;;;;;;;;;;;;;;17.48;34.41;101949.38;7353232;19;19923;-61
2023/06/04 00:45:10;;;;;;;;;;;;;;;17.44;34.22;101950.41;7349249;19;20585;-60
2023/06/04 00:47:35;;;;;;;;;;;;;;;17.38;34.51;101954.06;7350272;19;19930;-61
2023/06/04 00:50:01;;;;;;;;;;;;;;;17.33;34.48;101951.56;7350012;19;20048;-60
2023/06/04 00:52:26;;;;;;;;;;;;;;;17.27;34.59;101943.84;7348803;19;20811;-60
2023/06/04 00:54:52;;;;;;;;;;;;;;;17.23;34.29;101950.13;7348220;19;19922;-60
2023/06/04 00:57:17;;;;;;;;;;;;;;;17.18;34.38;101946.75;7349536;19;19919;-61
2023/06/04 00:59:42;;;;;;;;;;;;;;;17.14;34.50;101942.50;7348135;19;19922;-61
2023/06/04 01:02:16;;;;;;;;;;;;;;;17.09;34.56;101939.16;7346934;19;20259;-60
2023/06/04 01:04:44;;;;;;;;;;;;;;;17.05;34.70;101945.44;7352012;19;19923;-60
2023/06/04 01:07:09;;;;;;;;;;;;;;;17.01;34.74;101943.78;7347608;19;19979;-60
2023/06/04 01:09:36;;;;;;;;;;;;;;;16.95;34.92;101943.97;7351485;19;20708;-60
2023/06/04 01:12:04;;;;;;;;;;;;;;;16.91;34.63;101942.31;7350180;19;19919;-62
2023/06/04 01:14:29;;;;;;;;;;;;;;;16.85;35.03;101944.22;7350478;19;20395;-61
2023/06/04 01:17:02;;;;;;;;;;;;;;;16.81;34.81;101942.59;7350517;19;19915;-60
2023/06/04 01:19:41;;;;;;;;;;;;;;;16.75;35.01;101940.13;7351195;19;19930;-60
2023/06/04 01:22:11;;;;;;;;;;;;;;;16.71;34.89;101941.13;7348978;19;19926;-60
2023/06/04 01:24:37;;;;;;;;;;;;;;;16.66;35.17;101943.00;7350020;19;20284;-61
2023/06/04 01:27:04;;;;;;;;;;;;;;;16.63;35.21;101940.47;7346463;19;19944;-60
2023/06/04 01:29:31;;;;;;;;;;;;;;;16.59;35.00;101941.44;7349877;19;19938;-60
2023/06/04 01:31:57;;;;;;;;;;;;;;;16.54;35.52;101943.34;7351646;19;19938;-60
2023/06/04 01:34:23;;;;;;;;;;;;;;;16.51;35.48;101932.88;7350784;19;19925;-60
2023/06/04 01:36:48;;;;;;;;;;;;;;;16.47;35.18;101936.50;7347944;19;19927;-60
2023/06/04 01:39:13;;;;;;;;;;;;;;;16.43;35.15;101934.88;7342593;19;20627;-60
2023/06/04 01:41:39;;;;;;;;;;;;;;;16.39;35.64;101927.94;7351072;19;19949;-60
2023/06/04 01:44:04;;;;;;;;;;;;;;;16.37;35.56;101940.28;7348412;19;19938;-60
2023/06/04 01:46:29;;;;;;;;;;;;;;;16.31;35.47;101936.91;7350487;19;19919;-60
2023/06/04 01:48:54;;;;;;;;;;;;;;;16.27;35.23;101934.38;7347631;19;20523;-60
2023/06/04 01:51:20;;;;;;;;;;;;;;;16.22;35.51;101931.91;7349827;19;19999;-60
2023/06/04 01:53:45;;;;;;;;;;;;;;;16.19;35.91;101926.69;7348083;19;19919;-61
2023/06/04 01:56:11;;;;;;;;;;;;;;;16.15;35.64;101929.47;7348613;19;19925;-60
2023/06/04 01:58:36;;;;;;;;;;;;;;;16.12;35.78;101929.53;7338591;19;20764;-60
2023/06/04 02:01:03;;;;;;;;;;;;;;;16.08;35.72;101927.00;7349572;19;20411;-60
2023/06/04 02:03:32;;;;;;;;;;;;;;;16.04;35.97;101927.09;7351048;19;20343;-59
2023/06/04 02:05:57;;;;;;;;;;;;;;;15.99;35.92;101929.00;7351125;19;20612;-60
2023/06/04 02:08:25;;;;;;;;;;;;;;;15.96;35.90;101924.66;7349051;19;19919;-61
2023/06/04 02:10:50;;;;;;;;;;;;;;;15.93;35.85;101929.16;7350303;19;20751;-56
2023/06/04 02:13:15;;;;;;;;;;;;;;;15.88;36.15;101931.91;7349871;19;19918;-61
2023/06/04 02:15:41;;;;;;;;;;;;;;;15.85;36.35;101925.84;7350197;19;19943;-60
2023/06/04 02:18:16;;;;;;;;;;;;;;;15.81;36.10;101928.56;7348882;19;19918;-60
2023/06/04 02:20:42;;;;;;;;;;;;;;;15.77;36.38;101929.53;7349905;19;19922;-60
2023/06/04 02:23:08;;;;;;;;;;;;;;;15.73;36.48;101933.16;7349438;19;21861;-60
2023/06/04 02:25:33;;;;;;;;;;;;;;;15.69;36.45;101931.47;7352246;19;19934;-60
2023/06/04 02:27:58;;;;;;;;;;;;;;;15.65;36.29;101929.81;7348901;19;20478;-60
2023/06/04 02:30:23;;;;;;;;;;;;;;;15.62;36.22;101934.28;7349956;19;19919;-60
2023/06/04 02:32:50;;;;;;;;;;;;;;;15.58;36.38;101939.59;7348706;19;19922;-61
2023/06/04 02:35:16;;;;;;;;;;;;;;;15.55;36.23;101933.53;7342981;19;19915;-60
2023/06/04 02:37:41;;;;;;;;;;;;;;;15.51;36.67;101929.25;7349933;19;20539;-60
2023/06/04 02:40:07;;;;;;;;;;;;;;;15.48;36.62;101937.22;7354639;19;19915;-60
2023/06/04 02:42:32;;;;;;;;;;;;;;;15.45;36.72;101937.28;7357378;19;19994;-60
2023/06/04 02:44:57;;;;;;;;;;;;;;;15.41;36.87;101940.88;7354466;19;19922;-61
2023/06/04 02:47:22;;;;;;;;;;;;;;;15.40;36.86;101933.91;7355327;19;19919;-60
2023/06/04 02:49:48;;;;;;;;;;;;;;;15.36;36.66;101941.03;7357758;19;19919;-60
2023/06/04 02:52:13;;;;;;;;;;;;;;;15.32;37.13;101937.59;7355378;19;20335;-60
2023/06/04 02:54:38;;;;;;;;;;;;;;;15.30;37.10;101942.00;7353405;19;19974;-60
2023/06/04 02:57:04;;;;;;;;;;;;;;;15.27;36.94;101930.69;7335005;19;19959;-60
2023/06/04 02:59:29;;;;;;;;;;;;;;;15.25;36.69;101935.97;7357864;19;19935;-60
2023/06/04 03:01:55;;;;;;;;;;;;;;;15.21;36.96;101934.34;7356988;19;19918;-61
2023/06/04 03:04:20;;;;;;;;;;;;;;;15.19;37.08;101937.88;7356449;19;20705;-60
2023/06/04 03:06:46;;;;;;;;;;;;;;;15.16;37.09;101936.19;7356290;19;19918;-60
2023/06/04 03:09:11;;;;;;;;;;;;;;;15.14;37.29;101937.97;7357542;19;19986;-60
2023/06/04 03:11:37;;;;;;;;;;;;;;;15.12;37.27;101934.53;7355710;19;19927;-60
2023/06/04 03:14:02;;;;;;;;;;;;;;;15.11;37.09;101934.56;7354883;19;19922;-60
2023/06/04 03:16:27;;;;;;;;;;;;;;;15.08;37.10;101927.59;7347507;19;19921;-60
2023/06/04 03:18:52;;;;;;;;;;;;;;;15.05;37.30;101927.66;7334507;19;19915;-60
2023/06/04 03:21:18;;;;;;;;;;;;;;;15.03;37.41;101934.72;7353657;19;19979;-60
2023/06/04 03:23:43;;;;;;;;;;;;;;;15.00;37.58;101929.50;7351031;19;20619;-60
2023/06/04 03:26:08;;;;;;;;;;;;;;;14.99;37.26;101925.16;7355536;19;19945;-60
2023/06/04 03:28:34;;;;;;;;;;;;;;;14.97;37.79;101927.84;7351479;19;19919;-61
2023/06/04 03:30:59;;;;;;;;;;;;;;;14.94;37.49;101930.53;7354300;19;19957;-60
2023/06/04 03:33:25;;;;;;;;;;;;;;;14.93;37.72;101927.94;7352773;19;19940;-60
2023/06/04 03:35:51;;;;;;;;;;;;;;;14.90;37.89;101925.34;7355039;19;20573;-60
2023/06/04 03:38:16;;;;;;;;;;;;;;;14.89;37.79;101923.63;7353239;19;20271;-60
2023/06/04 03:40:42;;;;;;;;;;;;;;;14.86;37.65;101926.34;7353864;19;20336;-61
2023/06/04 03:43:07;;;;;;;;;;;;;;;14.83;37.63;101926.38;7348058;19;19930;-60
2023/06/04 03:45:32;;;;;;;;;;;;;;;14.81;37.68;101933.47;7353835;19;19926;-61
2023/06/04 03:47:57;;;;;;;;;;;;;;;14.78;38.02;101934.38;7353142;19;20000;-60
2023/06/04 03:50:23;;;;;;;;;;;;;;;14.75;37.91;101930.06;7352907;19;19911;-60
2023/06/04 03:52:48;;;;;;;;;;;;;;;14.73;38.11;101929.19;7353621;19;19929;-60
2023/06/04 03:55:14;;;;;;;;;;;;;;;14.69;38.01;101922.25;7351090;19;20324;-60
2023/06/04 03:57:39;;;;;;;;;;;;;;;14.69;37.85;101929.28;7347703;19;19926;-60
2023/06/04 04:00:05;;;;;;;;;;;;;;;14.66;37.85;101924.97;7353544;19;19923;-60
2023/06/04 04:02:31;;;;;;;;;;;;;;;14.64;38.16;101921.50;7353563;19;19949;-60
2023/06/04 04:04:57;;;;;;;;;;;;;;;14.62;38.12;101925.94;7352003;19;19936;-60
2023/06/04 04:07:22;;;;;;;;;;;;;;;14.61;38.34;101929.47;7350000;19;19923;-61
2023/06/04 04:09:47;;;;;;;;;;;;;;;14.60;38.46;101924.22;7352916;19;19925;-60
2023/06/04 04:12:13;;;;;;;;;;;;;;;14.57;38.64;101925.16;7351604;19;20349;-60
2023/06/04 04:14:38;;;;;;;;;;;;;;;14.56;38.79;101920.78;7353062;19;20033;-60
2023/06/04 04:17:03;;;;;;;;;;;;;;;14.54;38.75;101919.94;7355927;19;19936;-60
2023/06/04 04:19:29;;;;;;;;;;;;;;;14.53;38.74;101916.44;7348999;19;20686;-59
2023/06/04 04:21:54;;;;;;;;;;;;;;;14.52;38.71;101919.97;7350773;19;19939;-60
2023/06/04 04:24:23;;;;;;;;;;;;;;;14.50;38.96;101920.94;7352277;19;20443;-61
2023/06/04 04:26:53;;;;;;;;;;;;;;;14.50;38.92;101926.19;7352306;19;19950;-60
2023/06/04 04:29:22;;;;;;;;;;;;;;;14.48;39.00;101930.59;7352381;19;19990;-61
2023/06/04 04:31:47;;;;;;;;;;;;;;;14.47;38.65;101928.81;7349448;19;19939;-61
2023/06/04 04:34:14;;;;;;;;;;;;;;;14.46;39.01;101934.97;7353407;19;19926;-60
2023/06/04 04:36:40;;;;;;;;;;;;;;;14.45;38.85;101931.50;7346589;19;19926;-60
2023/06/04 04:39:05;;;;;;;;;;;;;;;14.45;38.71;101934.13;7350388;19;19923;-60
2023/06/04 04:41:32;;;;;;;;;;;;;;;14.45;39.16;101942.00;7346906;19;20327;-61
2023/06/04 04:44:02;;;;;;;;;;;;;;;14.45;38.94;101935.88;7352039;19;20622;-60
2023/06/04 04:46:27;;;;;;;;;;;;;;;14.44;39.31;101940.25;7352102;19;20568;-61
2023/06/04 04:48:53;;;;;;;;;;;;;;;14.44;39.30;101939.38;7352649;19;19955;-60
2023/06/04 04:51:18;;;;;;;;;;;;;;;14.43;38.94;101938.53;7351764;19;21897;-60
2023/06/04 04:53:43;;;;;;;;;;;;;;;14.44;39.33;101939.38;7348285;19;20285;-60
2023/06/04 04:56:08;;;;;;;;;;;;;;;14.45;39.45;101938.50;7351849;19;19918;-60
2023/06/04 04:58:34;;;;;;;;;;;;;;;14.44;39.45;101942.00;7350324;19;19939;-60
2023/06/04 05:00:59;;;;;;;;;;;;;;;14.44;39.28;101950.75;7350138;19;19915;-59
2023/06/04 05:03:24;;;;;;;;;;;;;;;14.46;39.24;101949.00;7349869;19;19934;-61
2023/06/04 05:05:50;;;;;;;;;;;;;;;14.46;39.09;101933.22;7352900;19;21219;-60
2023/06/04 05:08:15;;;;;;;;;;;;;;;14.48;39.08;101943.72;7350628;19;20601;-60
2023/06/04 05:10:40;;;;;;;;;;;;;;;14.49;39.44;101937.56;7350827;19;19919;-60
2023/06/04 05:13:06;;;;;;;;;;;;;;;14.50;39.51;101939.31;7349832;19;19922;-60
2023/06/04 05:15:31;;;;;;;;;;;;;;;14.52;39.19;101942.78;7350207;19;19922;-60
2023/06/04 05:17:57;;;;;;;;;;;;;;;14.52;39.56;101941.00;7349858;19;19924;-61
2023/06/04 05:20:23;;;;;;;;;;;;;;;14.55;39.36;101940.09;7352904;19;19921;-60
2023/06/04 05:22:48;;;;;;;;;;;;;;;14.58;39.39;101947.03;7349794;19;20018;-60
2023/06/04 05:25:14;;;;;;;;;;;;;;;14.59;39.24;101939.13;7351427;19;19923;-60
2023/06/04 05:27:39;;;;;;;;;;;;;;;14.61;39.62;101947.88;7352616;19;19933;-60
2023/06/04 05:30:06;;;;;;;;;;;;;;;14.63;39.41;101939.94;7348736;19;20449;-60
2023/06/04 05:32:32;;;;;;;;;;;;;;;14.66;39.60;101946.00;7349905;19;19977;-60
2023/06/04 05:34:58;;;;;;;;;;;;;;;14.69;39.59;101948.56;7343982;19;19915;-60
2023/06/04 05:37:24;;;;;;;;;;;;;;;14.71;39.50;101954.69;7351075;19;19923;-60
2023/06/04 05:39:50;;;;;;;;;;;;;;;14.76;39.63;101952.81;7352277;19;19919;-61
2023/06/04 05:42:15;;;;;;;;;;;;;;;14.80;39.49;101958.88;7350049;19;19974;-60
2023/06/04 05:44:40;;;;;;;;;;;;;;;14.84;39.59;101960.53;7345442;19;20355;-60
2023/06/04 05:47:06;;;;;;;;;;;;;;;14.88;39.50;101956.09;7347181;19;20707;-60
2023/06/04 05:49:34;;;;;;;;;;;;;;;14.91;39.20;101962.16;7350710;19;19935;-60
2023/06/04 05:51:59;;;;;;;;;;;;;;;14.95;39.47;101962.94;7351506;19;19960;-60
2023/06/04 05:54:24;;;;;;;;;;;;;;;14.99;39.16;101964.63;7351060;19;19954;-61
2023/06/04 05:56:49;;;;;;;;;;;;;;;15.04;38.91;101963.63;7348060;19;19922;-61
2023/06/04 05:59:15;;;;;;;;;;;;;;;15.09;38.85;101955.63;7340409;19;19921;-61
2023/06/04 06:01:40;;;;;;;;;;;;;;;15.13;39.11;101962.56;7351922;19;19930;-60
2023/06/04 06:04:05;;;;;;;;;;;;;;;15.20;38.85;101960.66;7350479;19;19925;-60
2023/06/04 06:06:30;;;;;;;;;;;;;;;15.22;39.14;101967.63;7349465;19;19936;-59
2023/06/04 06:08:56;;;;;;;;;;;;;;;15.27;38.83;101963.13;7350208;19;20447;-61
2023/06/04 06:11:21;;;;;;;;;;;;;;;15.31;39.03;101972.72;7350005;19;19998;-60
2023/06/04 06:13:46;;;;;;;;;;;;;;;15.37;38.93;101978.72;7355898;19;20582;-60
2023/06/04 06:16:12;;;;;;;;;;;;;;;15.43;38.85;101975.97;7351656;19;19921;-61
2023/06/04 06:18:37;;;;;;;;;;;;;;;15.48;39.13;101979.34;7353456;19;19914;-60
2023/06/04 06:21:02;;;;;;;;;;;;;;;15.53;39.07;101982.75;7352850;19;20376;-60
2023/06/04 06:23:28;;;;;;;;;;;;;;;15.57;38.81;101973.88;7345864;19;19926;-60
2023/06/04 06:25:53;;;;;;;;;;;;;;;15.62;38.72;101972.00;7359035;19;19972;-61
2023/06/04 06:28:18;;;;;;;;;;;;;;;15.68;38.77;101976.28;7355758;19;19940;-61
2023/06/04 06:30:44;;;;;;;;;;;;;;;15.72;39.19;101978.81;7357562;19;19930;-60
2023/06/04 06:33:09;;;;;;;;;;;;;;;15.77;39.17;101976.94;7353218;19;19936;-58
2023/06/04 06:35:35;;;;;;;;;;;;;;;15.83;38.80;101971.53;7355262;19;19964;-61
2023/06/04 06:38:00;;;;;;;;;;;;;;;15.89;39.10;101980.19;7357701;19;19935;-60
2023/06/04 06:40:25;;;;;;;;;;;;;;;15.93;39.18;101981.84;7351758;19;21825;-60
2023/06/04 06:42:50;;;;;;;;;;;;;;;15.98;39.33;101986.09;7356506;19;19943;-60
2023/06/04 06:45:16;;;;;;;;;;;;;;;16.04;39.72;101979.81;7352660;19;20252;-61
2023/06/04 06:47:42;;;;;;;;;;;;;;;16.09;39.76;101977.91;7357191;19;20451;-61
2023/06/04 06:50:07;;;;;;;;;;;;;;;16.14;39.38;101981.31;7355368;19;19915;-60
2023/06/04 06:52:32;;;;;;;;;;;;;;;16.20;39.56;101975.00;7330705;19;20029;-61
2023/06/04 06:54:58;;;;;;;;;;;;;;;16.25;40.11;101976.63;7355579;19;19996;-60
2023/06/04 06:57:23;;;;;;;;;;;;;;;16.30;40.09;101982.63;7354209;19;19931;-60
2023/06/04 06:59:51;;;;;;;;;;;;;;;16.37;39.89;101974.56;7357544;19;20622;-60
2023/06/04 07:02:16;;;;;;;;;;;;;;;16.42;39.79;101978.78;7353370;19;19917;-60
2023/06/04 07:04:42;;;;;;;;;;;;;;;16.47;40.47;101978.69;7356172;19;19918;-60
2023/06/04 07:07:07;;;;;;;;;;;;;;;16.53;40.46;101973.25;7357206;19;20619;-60
2023/06/04 07:09:32;;;;;;;;;;;;;;;16.58;40.43;101976.63;7356599;19;19936;-61
2023/06/04 07:11:57;;;;;;;;;;;;;;;16.64;40.21;101971.19;7358641;19;19959;-60
2023/06/04 07:14:23;;;;;;;;;;;;;;;16.70;40.58;101971.00;7352234;19;20001;-60
2023/06/04 07:16:48;;;;;;;;;;;;;;;16.75;40.29;101974.41;7353705;19;19915;-60
2023/06/04 07:19:13;;;;;;;;;;;;;;;16.80;40.23;101976.94;7353831;19;20502;-61
2023/06/04 07:21:38;;;;;;;;;;;;;;;16.86;40.50;101982.88;7356024;19;19929;-60
2023/06/04 07:24:04;;;;;;;;;;;;;;;16.93;40.75;101982.72;7354589;19;19943;-60
2023/06/04 07:26:30;;;;;;;;;;;;;;;16.98;40.82;101986.09;7355395;19;19928;-61
2023/06/04 07:28:56;;;;;;;;;;;;;;;17.04;40.95;101985.94;7358072;19;19927;-61
2023/06/04 07:31:22;;;;;;;;;;;;;;;17.10;40.93;101983.97;7354849;19;19922;-60
2023/06/04 07:33:47;;;;;;;;;;;;;;;17.15;40.58;101983.84;7357024;19;20114;-60
2023/06/04 07:36:13;;;;;;;;;;;;;;;17.21;40.97;101983.63;7349250;19;20872;-60
2023/06/04 07:38:38;;;;;;;;;;;;;;;17.26;41.15;101992.28;7355874;19;20335;-60
2023/06/04 07:41:03;;;;;;;;;;;;;;;17.32;40.93;101989.47;7354053;19;19922;-61
2023/06/04 07:43:28;;;;;;;;;;;;;;;17.38;40.88;101994.53;7355365;19;19925;-60
2023/06/04 07:45:54;;;;;;;;;;;;;;;17.11;40.56;101937.31;7354728;19;19929;-61
2023/06/04 07:48:19;;;;;;;;;;;;;;;17.50;40.26;101995.97;7354900;19;19937;-61
2023/06/04 07:50:44;;;;;;;;;;;;;;;17.56;40.81;102000.19;7352693;19;19930;-60
2023/06/04 07:53:10;;;;;;;;;;;;;;;17.61;40.93;101995.63;7352553;19;20686;-60
2023/06/04 07:55:35;;;;;;;;;;;;;;;17.68;41.06;101999.78;7353202;19;20534;-60
2023/06/04 07:58:00;;;;;;;;;;;;;;;17.73;40.61;102003.19;7351299;19;20140;-60
2023/06/04 08:00:26;;;;;;;;;;;;;;;17.80;39.59;101998.59;7356196;19;19934;-60
2023/06/04 08:02:52;;;;;;;;;;;;;;;17.87;40.21;102000.97;7358250;19;20381;-61
2023/06/04 08:05:17;;;;;;;;;;;;;;;17.93;40.32;102009.63;7355623;19;19922;-60
2023/06/04 08:07:43;;;;;;;;;;;;;;;17.98;40.54;102005.03;7336667;19;19939;-60
2023/06/04 08:10:08;;;;;;;;;;;;;;;18.05;39.96;101998.66;7355895;19;19922;-61
2023/06/04 08:12:34;;;;;;;;;;;;;;;18.10;40.49;102007.31;7353916;19;20393;-61
2023/06/04 08:14:59;;;;;;;;;;;;;;;18.15;40.79;101998.31;7353699;19;19931;-61
2023/06/04 08:17:24;;;;;;;;;;;;;;;18.21;40.69;101994.59;7351729;19;19922;-61
2023/06/04 08:19:50;;;;;;;;;;;;;;;18.27;40.95;101993.50;7352547;19;19931;-61
2023/06/04 08:22:15;;;;;;;;;;;;;;;18.32;40.46;101991.56;7351718;19;19922;-61
2023/06/04 08:24:40;;;;;;;;;;;;;;;18.38;39.71;102002.78;7356329;19;19919;-60
2023/06/04 08:27:08;;;;;;;;;;;;;;;18.45;40.04;101999.94;7356478;19;19926;-61
2023/06/04 08:29:33;;;;;;;;;;;;;;;18.50;39.99;101993.59;7354014;19;19956;-61
2023/06/04 08:31:58;;;;;;;;;;;;;;;18.24;40.39;101936.28;7356447;19;19919;-60
2023/06/04 08:34:24;;;;;;;;;;;;;;;18.62;40.23;101992.28;7355906;19;19923;-60
2023/06/04 08:36:49;;;;;;;;;;;;;;;18.70;40.13;101990.22;7353147;19;19943;-60
2023/06/04 08:39:14;;;;;;;;;;;;;;;18.77;39.92;101994.41;7355861;19;19923;-60
2023/06/04 08:41:40;;;;;;;;;;;;;;;18.83;39.79;101995.97;7353197;19;20058;-60
2023/06/04 08:44:06;;;;;;;;;;;;;;;18.88;40.49;101986.94;7358278;19;19915;-61
2023/06/04 08:46:39;;;;;;;;;;;;;;;18.95;40.34;101992.00;7355029;19;20820;-61
2023/06/04 08:49:06;;;;;;;;;;;;;;;19.01;40.30;102002.34;7354127;19;19923;-60
2023/06/04 08:51:33;;;;;;;;;;;;;;;19.08;40.25;102006.50;7355063;19;19934;-60
2023/06/04 08:53:58;;;;;;;;;;;;;;;19.13;40.48;102004.56;7355748;19;19915;-61
2023/06/04 08:56:24;;;;;;;;;;;;;;;19.19;39.91;102012.25;7352841;19;19929;-61
2023/06/04 08:58:49;;;;;;;;;;;;;;;19.25;39.71;102006.72;7351097;19;19918;-61
2023/06/04 09:01:15;;;;;;;;;;;;;;;19.32;39.78;102002.06;7355336;19;19934;-61
2023/06/04 09:03:41;;;;;;;;;;;;;;;19.36;39.17;102004.56;7355247;19;20747;-61
2023/06/04 09:06:06;;;;;;;;;;;;;;;19.43;39.45;102000.72;7354482;19;19936;-61
2023/06/04 09:08:34;;;;;;;;;;;;;;;19.48;39.46;101999.69;7353362;19;19919;-61
2023/06/04 09:11:01;;;;;;;;;;;;;;;19.54;39.56;102007.41;7350282;19;19950;-61
2023/06/04 09:13:30;;;;;;;;;;;;;;;19.59;39.27;102005.44;7352289;19;19931;-61
2023/06/04 09:16:02;;;;;;;;;;;;;;;19.63;39.96;102007.94;7352939;19;19926;-61
2023/06/04 09:18:28;;;;;;;;;;;;;;;19.69;38.66;102007.69;7349398;19;19966;-61
2023/06/04 09:21:03;;;;;;;;;;;;;;;19.74;39.72;102010.16;7351459;19;19936;-60
2023/06/04 09:23:28;;;;;;;;;;;;;;;19.80;39.46;102014.34;7348896;19;19922;-61
2023/06/04 09:25:54;;;;;;;;;;;;;;;19.87;39.52;102011.38;7354828;19;19922;-61
2023/06/04 09:28:20;;;;;;;;;;;;;;;20.00;39.14;102010.88;7346222;19;19986;-61
2023/06/04 09:30:52;;;;;;;;;;;;;;;20.18;39.12;102012.78;7355003;19;19927;-61
2023/06/04 09:33:17;;;;;;;;;;;;;;;20.43;39.33;102013.44;7341756;19;19962;-60
2023/06/04 09:35:52;;;;;;;;;;;;;;;20.70;39.33;102010.56;7347728;19;20405;-61
2023/06/04 09:38:17;;;;;;;;;;;;;;;20.99;38.90;102015.44;7351150;19;19926;-61
2023/06/04 09:40:43;;;;;;;;;;;;;;;21.30;38.86;102013.16;7328217;19;19922;-61
2023/06/04 09:43:10;;;;;;;;;;;;;;;21.61;38.68;102020.56;7347584;19;20576;-61
2023/06/04 09:45:35;;;;;;;;;;;;;;;21.94;38.91;102015.38;7345218;19;20752;-61
2023/06/04 09:48:02;;;;;;;;;;;;;;;22.26;38.63;102011.16;7350716;19;19953;-61
2023/06/04 09:50:32;;;;;;;;;;;;;;;22.58;38.58;102012.16;7351807;19;19950;-62
2023/06/04 09:52:57;;;;;;;;;;;;;;;22.91;38.31;102004.22;7352185;19;19927;-61
2023/06/04 09:55:22;;;;;;;;;;;;;;;23.23;38.25;102020.25;7340944;19;20263;-61
2023/06/04 09:57:51;;;;;;;;;;;;;;;23.53;37.75;102013.22;7353347;19;19919;-61
2023/06/04 10:00:17;;;;;;;;;;;;;;;23.85;37.55;102018.56;7343434;19;19986;-61
2023/06/04 10:02:44;;;;;;;;;;;;;;;24.16;37.46;102022.97;7344508;19;19923;-61
2023/06/04 10:05:12;;;;;;;;;;;;;;;24.49;37.94;102022.81;7346323;19;19926;-61
2023/06/04 10:07:38;;;;;;;;;;;;;;;24.83;37.46;102018.06;7349639;19;19910;-61
2023/06/04 10:10:04;;;;;;;;;;;;;;;25.16;37.46;102017.81;7348572;19;19927;-61
2023/06/04 10:12:30;;;;;;;;;;;;;;;25.51;36.85;102030.75;7352732;19;19922;-61
2023/06/04 10:15:01;;;;;;;;;;;;;;;25.84;36.63;102025.88;7350766;19;20345;-61
2023/06/04 10:17:28;;;;;;;;;;;;;;;26.20;36.75;102034.25;7346990;19;20350;-62
2023/06/04 10:19:54;;;;;;;;;;;;;;;26.54;36.48;102022.97;7345440;19;19919;-61
2023/06/04 10:22:22;;;;;;;;;;;;;;;26.89;36.03;102038.41;7347693;19;20335;-61
2023/06/04 10:24:47;;;;;;;;;;;;;;;27.24;35.95;102027.03;7347282;19;19999;-61
2023/06/04 10:27:13;;;;;;;;;;;;;;;27.56;35.49;102028.22;7349364;19;19974;-62
2023/06/04 10:29:39;;;;;;;;;;;;;;;27.91;35.48;102027.47;7346857;19;19923;-62
2023/06/04 10:32:04;;;;;;;;;;;;;;;28.24;34.61;102039.34;7351527;19;19932;-62
2023/06/04 10:34:30;;;;;;;;;;;;;;;28.57;34.52;102030.53;7347512;19;19944;-61
2023/06/04 10:36:55;;;;;;;;;;;;;;;28.91;34.24;102040.34;7350277;19;20030;-61
2023/06/04 10:39:32;;;;;;;;;;;;;;;29.24;33.75;102037.78;7347672;19;20518;-60
2023/06/04 10:42:05;;;;;;;;;;;;;;;29.61;33.44;102043.78;7347066;19;19934;-61
2023/06/04 10:44:30;;;;;;;;;;;;;;;29.94;33.75;102042.81;7346641;19;20314;-61
2023/06/04 10:46:56;;;;;;;;;;;;;;;30.26;33.24;102050.03;7349485;19;19962;-61
2023/06/04 10:49:28;;;;;;;;;;;;;;;30.55;33.24;102051.09;7346188;19;19914;-61
2023/06/04 10:51:56;;;;;;;;;;;;;;;30.86;32.91;102048.47;7350153;19;19915;-61
2023/06/04 10:54:27;;;;;;;;;;;;;;;30.98;33.00;102023.13;7348865;19;19943;-61
2023/06/04 10:56:56;;;;;;;;;;;;;;;31.46;31.82;102049.44;7346139;19;19919;-61
2023/06/04 10:59:22;;;;;;;;;;;;;;;31.73;31.53;102052.34;7348094;19;20462;-62
2023/06/04 11:01:47;;;;;;;;;;;;;;;32.02;31.96;102052.38;7355147;19;19938;-61
2023/06/04 11:04:23;;;;;;;;;;;;;;;32.33;31.32;102051.38;7356450;19;20462;-61
2023/06/04 11:07:01;;;;;;;;;;;;;;;32.63;30.92;102047.63;7357254;19;20012;-61
2023/06/04 11:09:27;;;;;;;;;;;;;;;32.98;31.72;102049.69;7351293;19;19947;-61
2023/06/04 11:11:59;;;;;;;;;;;;;;;33.24;30.69;102052.56;7352825;19;22142;-61
2023/06/04 11:14:24;;;;;;;;;;;;;;;33.55;30.50;102066.66;7352828;19;19949;-61
2023/06/04 11:16:49;;;;;;;;;;;;;;;33.85;30.84;102064.59;7358042;19;20336;-61
2023/06/04 11:19:15;;;;;;;;;;;;;;;34.06;30.21;102068.78;7347519;19;20459;-61
2023/06/04 11:21:40;;;;;;;;;;;;;;;34.27;29.76;102063.00;7338233;19;19922;-61
2023/06/04 11:24:06;;;;;;;;;;;;;;;34.47;29.30;102065.53;7350653;19;19926;-61
2023/06/04 11:26:34;;;;;;;;;;;;;;;34.70;29.03;102066.72;7356895;19;19926;-61
2023/06/04 11:29:01;;;;;;;;;;;;;;;34.98;29.25;102066.59;7356066;19;19923;-61
2023/06/04 11:31:26;;;;;;;;;;;;;;;35.22;28.39;102063.97;7351056;19;21283;-61
2023/06/04 11:33:52;;;;;;;;;;;;;;;35.46;29.45;102059.69;7346302;19;20028;-61
2023/06/04 11:36:25;;;;;;;;;;;;;;;35.71;29.03;102061.44;7344780;19;19930;-61
2023/06/04 11:38:55;;;;;;;;;;;;;;;35.96;28.35;102061.50;7350916;19;19947;-61
2023/06/04 11:41:20;;;;;;;;;;;;;;;36.17;28.29;102064.56;7352619;19;19923;-61
2023/06/04 11:43:49;;;;;;;;;;;;;;;36.31;27.85;102066.59;7356266;19;20824;-62
2023/06/04 11:46:14;;;;;;;;;;;;;;;36.34;26.85;102060.81;7351424;19;20340;-61
2023/06/04 11:48:39;;;;;;;;;;;;;;;36.37;26.49;102065.06;7355414;19;19928;-62
2023/06/04 11:51:07;;;;;;;;;;;;;;;36.46;26.03;102068.66;7350079;19;19939;-61
2023/06/04 11:53:32;;;;;;;;;;;;;;;36.57;26.88;102065.59;7352426;19;20768;-62
2023/06/04 11:55:58;;;;;;;;;;;;;;;36.60;25.95;102065.25;7351244;19;19927;-61
2023/06/04 11:58:23;;;;;;;;;;;;;;;36.57;25.94;102071.03;7357837;19;19930;-61
2023/06/04 12:00:49;;;;;;;;;;;;;;;36.55;25.53;102052.16;7350837;19;20379;-62
2023/06/04 12:03:14;;;;;;;;;;;;;;;36.64;25.40;102061.13;7353082;19;20035;-61
2023/06/04 12:05:39;;;;;;;;;;;;;;;36.79;25.11;102058.56;7349762;19;19927;-61
2023/06/04 12:08:09;;;;;;;;;;;;;;;36.99;25.54;102059.03;7357900;19;19922;-61
2023/06/04 12:10:38;;;;;;;;;;;;;;;37.13;24.82;102058.31;7347156;19;19927;-61
2023/06/04 12:13:03;;;;;;;;;;;;;;;37.23;24.24;102048.03;7336938;19;19944;-62
2023/06/04 12:15:29;;;;;;;;;;;;;;;37.40;25.15;102052.41;7352398;19;19998;-61
2023/06/04 12:17:54;;;;;;;;;;;;;;;37.62;24.42;102052.63;7356317;19;19923;-61
2023/06/04 12:20:36;;;;;;;;;;;;;;;37.85;24.48;102056.22;7355555;19;19943;-61
2023/06/04 12:23:02;;;;;;;;;;;;;;;38.17;24.08;102051.53;7355474;19;20497;-62
2023/06/04 12:25:28;;;;;;;;;;;;;;;38.48;25.03;102050.63;7353390;19;19930;-62
2023/06/04 12:27:54;;;;;;;;;;;;;;;38.71;24.67;102062.28;7353707;19;19947;-61
2023/06/04 12:30:19;;;;;;;;;;;;;;;38.83;23.92;102052.63;7349073;19;20022;-62